Time;durP1;ratioP1;P1;durP2;ratioP2;P2;SDS_P1;SDS_P2;PMS_P1;PMS_P2;Temp;Humidity;BMP_temperature;BMP_pressure;BME280_temperature;BME280_humidity;BME280_pressure;Samples;Min_cycle;Max_cycle;Signal;HPM_P1;HPM_P2
2022/06/01 00:01:18;;;;;;;9.88;8.15;;;11.90;99.90;;;;;;5068418;28;20057;-70
2022/06/01 00:03:44;;;;;;;9.95;8.57;;;12.00;99.90;;;;;;5067046;28;20447;-69
2022/06/01 00:06:11;;;;;;;10.18;8.40;;;12.00;99.90;;;;;;5068506;28;20044;-69
2022/06/01 00:08:37;;;;;;;10.43;8.10;;;12.00;99.90;;;;;;5068883;28;20563;-69
2022/06/01 00:11:03;;;;;;;12.18;8.57;;;12.00;99.90;;;;;;5067169;28;20401;-70
2022/06/01 00:13:30;;;;;;;11.00;8.25;;;12.50;99.90;;;;;;5068283;28;20606;-69
2022/06/01 00:15:56;;;;;;;11.98;9.43;;;12.80;99.90;;;;;;5067356;28;20040;-69
2022/06/01 00:18:23;;;;;;;12.13;9.32;;;11.90;99.90;;;;;;5069527;28;20037;-69
2022/06/01 00:20:50;;;;;;;12.65;9.27;;;12.00;99.90;;;;;;5067226;28;20044;-69
2022/06/01 00:23:16;;;;;;;11.80;9.57;;;12.10;99.90;;;;;;5067624;28;20044;-69
2022/06/01 00:25:42;;;;;;;12.73;9.93;;;12.10;99.90;;;;;;5068376;28;20549;-69
2022/06/01 00:28:08;;;;;;;15.70;9.13;;;12.10;99.90;;;;;;5067784;28;20091;-70
2022/06/01 00:30:34;;;;;;;18.38;10.23;;;12.40;99.90;;;;;;5067773;28;20084;-70
2022/06/01 00:33:00;;;;;;;13.88;9.98;;;12.10;99.90;;;;;;5069344;28;20112;-70
2022/06/01 00:35:26;;;;;;;13.25;10.20;;;12.30;99.90;;;;;;5068269;28;20120;-70
2022/06/01 00:37:51;;;;;;;12.13;10.15;;;12.10;99.90;;;;;;5068402;28;20102;-70
2022/06/01 00:40:20;;;;;;;11.80;9.40;;;12.20;99.90;;;;;;5069287;28;20068;-71
2022/06/01 00:42:48;;;;;;;11.40;9.75;;;12.20;99.90;;;;;;5067523;28;20095;-71
2022/06/01 00:45:18;;;;;;;11.82;9.95;;;12.10;99.90;;;;;;5065673;28;20165;-70
2022/06/01 00:47:43;;;;;;;11.13;9.65;;;12.10;99.90;;;;;;5066966;28;20045;-70
2022/06/01 00:50:22;;;;;;;12.98;9.20;;;12.00;99.90;;;;;;5067573;28;20191;-70
2022/06/01 00:53:13;;;;;;;12.95;9.32;;;12.20;99.90;;;;;;5067952;28;20067;-70
2022/06/01 00:55:46;;;;;;;12.00;9.75;;;11.90;99.90;;;;;;5060651;28;20040;-70
2022/06/01 00:58:20;;;;;;;11.15;9.57;;;12.40;99.90;;;;;;5066895;28;20037;-70
2022/06/01 01:00:47;;;;;;;12.52;9.77;;;11.90;99.90;;;;;;5066237;28;20121;-70
2022/06/01 01:03:15;;;;;;;14.13;10.25;;;12.30;99.90;;;;;;5067769;28;20454;-70
2022/06/01 01:05:46;;;;;;;13.82;10.55;;;11.90;99.90;;;;;;5068798;28;20041;-71
2022/06/01 01:08:12;;;;;;;13.05;9.98;;;11.80;99.90;;;;;;5070110;28;20048;-70
2022/06/01 01:10:38;;;;;;;14.52;10.52;;;11.80;99.90;;;;;;5063975;28;20040;-70
2022/06/01 01:13:08;;;;;;;13.93;10.80;;;12.30;99.90;;;;;;5067228;28;20091;-70
2022/06/01 01:15:51;;;;;;;12.40;10.50;;;11.70;99.90;;;;;;5060101;28;20049;-70
2022/06/01 01:18:21;;;;;;;14.85;12.32;;;12.00;99.90;;;;;;5047663;28;20056;-69
2022/06/01 01:21:16;;;;;;;12.95;11.07;;;12.30;99.90;;;;;;5065774;28;20200;-69
2022/06/01 01:23:53;;;;;;;15.00;11.90;;;11.60;99.90;;;;;;5067411;28;20382;-70
2022/06/01 01:26:21;;;;;;;15.13;11.52;;;11.60;99.90;;;;;;5067193;28;20051;-70
2022/06/01 01:28:46;;;;;;;12.30;10.98;;;11.60;99.90;;;;;;5066106;28;20114;-69
2022/06/01 01:31:16;;;;;;;15.02;11.90;;;11.60;99.90;;;;;;5069121;28;20520;-70
2022/06/01 01:33:43;;;;;;;14.68;11.90;;;11.50;99.90;;;;;;5066280;28;20499;-70
2022/06/01 01:36:12;;;;;;;13.90;11.98;;;12.00;99.90;;;;;;5067390;28;20075;-70
2022/06/01 01:38:49;;;;;;;15.10;11.38;;;11.50;99.90;;;;;;5067790;28;20033;-69
2022/06/01 01:41:30;;;;;;;14.50;12.32;;;11.50;99.90;;;;;;5067328;28;20043;-70
2022/06/01 01:44:17;;;;;;;15.95;12.52;;;11.50;99.90;;;;;;5066750;28;20108;-69
2022/06/01 01:46:47;;;;;;;15.77;12.52;;;11.50;99.90;;;;;;5068276;28;20049;-70
2022/06/01 01:49:15;;;;;;;14.60;12.60;;;11.50;99.90;;;;;;5045381;28;20048;-70
2022/06/01 01:51:40;;;;;;;15.18;12.35;;;12.00;99.90;;;;;;5047765;28;20497;-70
2022/06/01 01:54:23;;;;;;;15.80;12.40;;;11.50;99.90;;;;;;5047330;28;20041;-70
2022/06/01 01:57:06;;;;;;;16.27;12.18;;;11.80;99.90;;;;;;5055589;28;20052;-70
2022/06/01 01:59:40;;;;;;;16.92;12.10;;;11.60;99.90;;;;;;5066804;28;20033;-69
2022/06/01 02:02:32;;;;;;;15.98;12.38;;;11.60;99.90;;;;;;5068662;28;20096;-70
2022/06/01 02:08:01;;;;;;;14.50;12.80;;;11.60;99.90;;;;;;5071250;28;20587;-70
2022/06/01 02:13:14;;;;;;;15.23;12.77;;;11.50;99.90;;;;;;5069574;28;20048;-70
2022/06/01 02:15:44;;;;;;;15.70;12.38;;;11.60;99.90;;;;;;5069711;28;20087;-70
2022/06/01 02:18:15;;;;;;;13.82;12.02;;;11.60;99.90;;;;;;5070748;28;20051;-70
2022/06/01 02:20:54;;;;;;;14.18;12.63;;;11.60;99.90;;;;;;5071463;28;20055;-69
2022/06/01 02:23:20;;;;;;;14.73;12.63;;;11.60;99.90;;;;;;5071929;28;20052;-70
2022/06/01 02:25:48;;;;;;;17.10;12.50;;;11.60;99.90;;;;;;5070600;28;20040;-70
2022/06/01 02:28:15;;;;;;;16.50;12.95;;;11.50;99.90;;;;;;5069114;28;20032;-70
2022/06/01 02:30:42;;;;;;;15.73;13.00;;;11.50;99.90;;;;;;5069567;28;20052;-69
2022/06/01 02:33:19;;;;;;;17.88;12.57;;;11.50;99.90;;;;;;5070110;28;20525;-70
2022/06/01 02:35:50;;;;;;;15.50;13.48;;;12.00;99.90;;;;;;5063664;28;20044;-70
2022/06/01 02:38:25;;;;;;;18.58;14.45;;;11.50;99.90;;;;;;5049828;28;20051;-70
2022/06/01 02:40:51;;;;;;;16.98;14.23;;;11.50;99.90;;;;;;5060938;28;20115;-69
2022/06/01 02:43:17;;;;;;;16.52;13.68;;;12.10;99.90;;;;;;5071439;28;20040;-69
2022/06/01 02:45:43;;;;;;;18.10;14.25;;;11.80;99.90;;;;;;5069252;28;20136;-70
2022/06/01 02:48:09;;;;;;;19.67;14.60;;;12.50;99.90;;;;;;5069725;28;20393;-70
2022/06/01 02:50:36;;;;;;;20.38;14.52;;;12.00;99.90;;;;;;5070284;28;20049;-70
2022/06/01 02:53:02;;;;;;;16.23;14.07;;;11.40;99.90;;;;;;5070218;28;20045;-70
2022/06/01 02:55:29;;;;;;;16.30;14.32;;;11.50;99.90;;;;;;5069963;28;20048;-70
2022/06/01 02:57:56;;;;;;;16.88;13.75;;;12.40;99.90;;;;;;5048912;28;20168;-70
2022/06/01 03:00:26;;;;;;;19.77;14.30;;;11.50;99.90;;;;;;5051732;28;20057;-69
2022/06/01 03:02:55;;;;;;;19.25;15.23;;;11.40;99.90;;;;;;5068179;28;20411;-70
2022/06/01 03:05:24;;;;;;;18.85;15.15;;;11.50;99.90;;;;;;5069219;28;20032;-70
2022/06/01 03:07:50;;;;;;;17.00;14.63;;;11.40;99.90;;;;;;5070241;28;20408;-70
2022/06/01 03:10:16;;;;;;;18.40;15.18;;;11.70;99.90;;;;;;5067591;28;20165;-70
2022/06/01 03:12:42;;;;;;;17.42;14.65;;;11.40;99.90;;;;;;5068802;28;20545;-70
2022/06/01 03:15:10;;;;;;;19.38;14.73;;;12.00;99.90;;;;;;5069495;28;20041;-71
2022/06/01 03:17:36;;;;;;;19.65;15.18;;;11.30;99.90;;;;;;5069230;28;20048;-70
2022/06/01 03:20:07;;;;;;;20.73;15.18;;;11.90;99.90;;;;;;5066869;28;20165;-70
2022/06/01 03:22:37;;;;;;;17.65;15.30;;;11.30;99.90;;;;;;5071274;28;20055;-70
2022/06/01 03:25:09;;;;;;;19.08;15.63;;;11.40;99.90;;;;;;5072025;28;20041;-70
2022/06/01 03:27:35;;;;;;;24.60;15.48;;;12.30;99.90;;;;;;5068770;28;20104;-70
2022/06/01 03:30:02;;;;;;;18.92;15.68;;;12.10;99.90;;;;;;5069351;28;20436;-70
2022/06/01 03:32:28;;;;;;;19.95;15.60;;;11.40;99.90;;;;;;5068978;28;20127;-69
2022/06/01 03:34:54;;;;;;;20.88;15.63;;;12.20;99.90;;;;;;5068558;28;20608;-70
2022/06/01 03:37:20;;;;;;;18.75;15.80;;;11.40;99.90;;;;;;5057786;28;20047;-69
2022/06/01 03:39:46;;;;;;;17.15;15.35;;;11.40;99.90;;;;;;5067962;28;20044;-70
2022/06/01 03:42:12;;;;;;;17.75;15.35;;;11.60;99.90;;;;;;5068392;28;20036;-70
2022/06/01 03:47:21;;;;;;;17.80;15.32;;;12.30;99.90;;;;;;5066836;28;20198;-69
2022/06/01 03:49:47;;;;;;;18.15;16.05;;;11.40;99.90;;;;;;5070322;28;20232;-70
2022/06/01 03:52:13;;;;;;;17.83;15.48;;;12.10;99.90;;;;;;5068887;28;20036;-70
2022/06/01 03:54:39;;;;;;;18.20;16.08;;;11.50;99.90;;;;;;5068221;28;20155;-70
2022/06/01 03:57:05;;;;;;;18.20;16.27;;;12.00;99.90;;;;;;5068666;28;20044;-70
2022/06/01 03:59:31;;;;;;;18.50;15.93;;;11.40;99.90;;;;;;5069044;28;20052;-70
2022/06/01 04:02:01;;;;;;;17.50;15.63;;;11.60;99.90;;;;;;5065473;28;20451;-70
2022/06/01 04:04:27;;;;;;;18.40;16.42;;;11.40;99.90;;;;;;5068968;28;20067;-70
2022/06/01 04:06:53;;;;;;;18.85;16.80;;;11.70;99.90;;;;;;5068746;28;20123;-70
2022/06/01 04:09:19;;;;;;;19.08;15.88;;;11.40;99.90;;;;;;5058345;28;20549;-70
2022/06/01 04:11:44;;;;;;;19.92;16.00;;;11.40;99.90;;;;;;5048791;28;20045;-70
2022/06/01 04:14:10;;;;;;;19.42;15.55;;;11.50;99.90;;;;;;5055748;28;20455;-70
2022/06/01 04:16:35;;;;;;;19.25;15.60;;;11.50;99.90;;;;;;5067821;28;20461;-70
2022/06/01 04:19:01;;;;;;;19.08;15.63;;;11.50;99.90;;;;;;5068132;28;20501;-70
2022/06/01 04:21:30;;;;;;;17.63;15.70;;;11.50;99.90;;;;;;5068545;28;20043;-70
2022/06/01 04:24:00;;;;;;;19.58;16.02;;;11.90;99.90;;;;;;5068803;28;20135;-70
2022/06/01 04:26:26;;;;;;;18.40;15.90;;;12.00;99.90;;;;;;5067389;28;20051;-70
2022/06/01 04:28:53;;;;;;;22.67;17.27;;;11.60;99.90;;;;;;5064698;28;20049;-70
2022/06/01 04:31:18;;;;;;;21.17;16.15;;;11.90;99.90;;;;;;5065710;28;20130;-70
2022/06/01 04:33:44;;;;;;;20.35;17.08;;;11.60;99.90;;;;;;5067986;28;20140;-70
2022/06/01 04:36:09;;;;;;;19.50;17.10;;;11.70;99.90;;;;;;5066859;28;20430;-70
2022/06/01 04:38:35;;;;;;;19.55;16.45;;;11.70;99.90;;;;;;5067149;28;20037;-69
2022/06/01 04:41:01;;;;;;;18.25;15.27;;;11.70;99.90;;;;;;5066871;28;20041;-70
2022/06/01 04:43:27;;;;;;;18.52;15.93;;;11.70;99.90;;;;;;5064963;28;20044;-70
2022/06/01 04:45:54;;;;;;;20.48;17.15;;;11.70;99.90;;;;;;5064512;28;20056;-70
2022/06/01 04:48:22;;;;;;;18.42;15.85;;;11.70;99.90;;;;;;5045758;28;20041;-70
2022/06/01 04:50:48;;;;;;;19.65;16.10;;;12.60;99.90;;;;;;5065621;28;20362;-70
2022/06/01 04:53:15;;;;;;;18.48;16.08;;;11.80;99.90;;;;;;5067468;28;20033;-70
2022/06/01 04:55:43;;;;;;;18.15;16.05;;;11.90;99.90;;;;;;5067117;28;20089;-69
2022/06/01 04:58:09;;;;;;;19.48;16.52;;;11.80;99.90;;;;;;5066265;28;20353;-69
2022/06/01 05:00:36;;;;;;;18.02;15.82;;;11.90;99.90;;;;;;5066991;28;20455;-72
2022/06/01 05:03:02;;;;;;;18.20;15.50;;;11.90;99.90;;;;;;5067270;28;20084;-70
2022/06/01 05:05:29;;;;;;;19.90;16.40;;;12.00;99.90;;;;;;5066623;28;20064;-70
2022/06/01 05:07:54;;;;;;;17.42;15.32;;;12.00;99.90;;;;;;5067750;28;20134;-70
2022/06/01 05:10:23;;;;;;;19.63;16.73;;;12.10;99.90;;;;;;5065703;28;20350;-70
2022/06/01 05:12:49;;;;;;;25.02;16.73;;;12.10;99.90;;;;;;5065247;28;20060;-70
2022/06/01 05:15:15;;;;;;;21.02;16.33;;;12.80;99.90;;;;;;5069902;28;20041;-70
2022/06/01 05:17:41;;;;;;;18.67;16.27;;;12.10;99.90;;;;;;5067367;28;20045;-70
2022/06/01 05:20:08;;;;;;;18.33;16.45;;;12.50;99.90;;;;;;5067413;28;20119;-70
2022/06/01 05:22:33;;;;;;;20.45;16.73;;;12.00;99.90;;;;;;5067463;28;20067;-70
2022/06/01 05:24:59;;;;;;;22.48;17.17;;;12.60;99.90;;;;;;5066886;28;20111;-72
2022/06/01 05:27:25;;;;;;;19.35;17.13;;;12.50;99.90;;;;;;5065669;28;20404;-71
2022/06/01 05:29:51;;;;;;;20.77;17.70;;;11.90;99.90;;;;;;5066856;28;20124;-70
2022/06/01 05:32:17;;;;;;;21.63;17.70;;;12.00;99.90;;;;;;5065542;28;20511;-70
2022/06/01 05:34:43;;;;;;;22.73;18.23;;;12.00;99.90;;;;;;5048910;28;20048;-70
2022/06/01 05:37:09;;;;;;;20.95;17.90;;;12.10;99.90;;;;;;5069853;28;20086;-70
2022/06/01 05:39:35;;;;;;;19.52;16.60;;;12.00;99.90;;;;;;5073157;28;20037;-71
2022/06/01 05:42:01;;;;;;;18.83;16.77;;;12.20;99.90;;;;;;5069059;28;20070;-70
2022/06/01 05:44:26;;;;;;;19.13;17.05;;;12.30;99.90;;;;;;5070171;28;20032;-70
2022/06/01 05:46:54;;;;;;;19.20;16.30;;;12.90;99.90;;;;;;5069405;28;20056;-71
2022/06/01 05:49:20;;;;;;;20.80;16.55;;;12.40;99.90;;;;;;5052589;28;20409;-71
2022/06/01 05:51:45;;;;;;;19.33;17.10;;;12.40;99.90;;;;;;5071037;28;20032;-71
2022/06/01 05:54:11;;;;;;;17.27;15.45;;;13.30;99.90;;;;;;5071654;28;20040;-71
2022/06/01 05:56:37;;;;;;;23.35;16.77;;;12.40;99.90;;;;;;5069635;28;20128;-71
2022/06/01 05:59:03;;;;;;;19.30;16.15;;;12.40;99.90;;;;;;5070158;28;20044;-71
2022/06/01 06:01:29;;;;;;;19.95;15.77;;;12.40;99.90;;;;;;5070073;28;20559;-71
2022/06/01 06:03:55;;;;;;;18.48;16.35;;;13.30;99.90;;;;;;5068975;28;20243;-70
2022/06/01 06:06:23;;;;;;;17.85;14.65;;;12.50;99.90;;;;;;5070375;28;20068;-70
2022/06/01 06:08:53;;;;;;;17.85;15.30;;;12.70;99.90;;;;;;5068789;28;20056;-71
2022/06/01 06:11:19;;;;;;;17.52;14.77;;;12.70;99.90;;;;;;5068882;28;20040;-71
2022/06/01 06:13:46;;;;;;;19.20;14.70;;;12.90;99.90;;;;;;5068978;28;20357;-71
2022/06/01 06:16:14;;;;;;;17.00;15.10;;;12.80;99.90;;;;;;5068926;28;20044;-71
2022/06/01 06:18:40;;;;;;;16.42;14.55;;;12.90;99.90;;;;;;5068980;28;20454;-70
2022/06/01 06:21:06;;;;;;;17.05;15.23;;;12.90;99.90;;;;;;5070553;28;20182;-70
2022/06/01 06:23:32;;;;;;;18.77;14.95;;;13.00;99.90;;;;;;5067851;28;20037;-70
2022/06/01 06:25:58;;;;;;;18.13;14.25;;;13.30;99.90;;;;;;5070474;28;20049;-70
2022/06/01 06:28:25;;;;;;;18.10;15.18;;;13.60;99.90;;;;;;5068509;28;20041;-70
2022/06/01 06:30:51;;;;;;;18.65;14.82;;;13.90;99.90;;;;;;5069780;28;20126;-70
2022/06/01 06:33:17;;;;;;;16.35;14.65;;;14.10;99.90;;;;;;5048172;28;20049;-70
2022/06/01 06:35:44;;;;;;;16.00;14.30;;;14.30;99.90;;;;;;5049584;28;20052;-69
2022/06/01 06:38:10;;;;;;;17.58;13.77;;;14.40;99.90;;;;;;5052323;28;20044;-70
2022/06/01 06:40:37;;;;;;;16.45;14.00;;;15.00;99.90;;;;;;5049233;28;20156;-70
2022/06/01 06:43:04;;;;;;;12.32;11.02;;;14.40;99.90;;;;;;5048792;28;20088;-70
2022/06/01 06:45:30;;;;;;;16.60;10.48;;;14.20;99.90;;;;;;5049147;28;20474;-70
2022/06/01 06:47:56;;;;;;;10.32;6.85;;;14.00;99.90;;;;;;5048781;28;20052;-70
2022/06/01 06:50:22;;;;;;;9.73;6.00;;;13.80;99.90;;;;;;5048745;28;20051;-70
2022/06/01 06:52:48;;;;;;;11.57;6.28;;;13.60;99.90;;;;;;5050475;28;20045;-70
2022/06/01 06:55:14;;;;;;;9.32;7.07;;;13.30;99.90;;;;;;5069964;28;20051;-70
2022/06/01 06:57:41;;;;;;;10.13;6.57;;;13.20;99.90;;;;;;5068365;28;20041;-70
2022/06/01 07:00:09;;;;;;;9.35;7.20;;;13.00;99.90;;;;;;5069480;28;20507;-71
2022/06/01 07:02:35;;;;;;;11.30;7.85;;;12.90;99.90;;;;;;5051389;28;20386;-70
2022/06/01 07:05:05;;;;;;;11.13;7.22;;;12.80;99.90;;;;;;5068797;28;20044;-70
2022/06/01 07:07:31;;;;;;;9.68;7.07;;;12.70;99.90;;;;;;5069000;28;20047;-71
2022/06/01 07:09:57;;;;;;;9.65;7.70;;;13.00;99.90;;;;;;5067716;28;20440;-71
2022/06/01 07:12:22;;;;;;;10.75;7.50;;;12.70;99.90;;;;;;5067402;28;20101;-70
2022/06/01 07:14:48;;;;;;;9.43;7.28;;;12.90;99.90;;;;;;5066921;28;20055;-71
2022/06/01 07:17:14;;;;;;;10.43;8.27;;;12.60;99.90;;;;;;5068336;28;20128;-71
2022/06/01 07:19:39;;;;;;;10.15;8.48;;;13.10;99.90;;;;;;5066717;28;20028;-72
2022/06/01 07:22:05;;;;;;;10.68;9.20;;;12.60;99.90;;;;;;5068999;28;20095;-72
2022/06/01 07:24:30;;;;;;;10.80;9.32;;;12.60;99.90;;;;;;5067050;28;20040;-71
2022/06/01 07:26:56;;;;;;;12.02;9.07;;;12.70;99.90;;;;;;5069340;28;20044;-71
2022/06/01 07:29:22;;;;;;;10.48;8.40;;;12.70;99.90;;;;;;5068332;28;20048;-71
2022/06/01 07:31:50;;;;;;;9.40;8.20;;;12.90;99.90;;;;;;5067513;28;20107;-71
2022/06/01 07:34:17;;;;;;;9.30;8.30;;;13.00;99.90;;;;;;5066243;28;20048;-69
2022/06/01 07:36:45;;;;;;;11.02;8.93;;;13.10;99.90;;;;;;5068407;28;20052;-72
2022/06/01 07:44:49;;;;;;;11.05;9.02;;;13.50;99.90;;;;;;5046875;28;20053;-69
2022/06/01 07:47:15;;;;;;;10.88;9.40;;;13.60;99.90;;;;;;5047378;28;20102;-70
2022/06/01 07:49:41;;;;;;;12.05;9.10;;;13.80;99.90;;;;;;5048481;28;20060;-70
2022/06/01 07:52:12;;;;;;;10.73;9.18;;;13.90;99.90;;;;;;5047113;28;20048;-69
2022/06/01 07:54:40;;;;;;;11.00;9.65;;;14.00;99.90;;;;;;5048298;28;20120;-70
2022/06/01 07:57:06;;;;;;;14.15;9.32;;;14.30;99.90;;;;;;5049678;28;20067;-70
2022/06/01 07:59:32;;;;;;;11.60;9.40;;;14.50;99.90;;;;;;5052126;28;20051;-70
2022/06/01 08:01:57;;;;;;;10.23;9.10;;;14.80;99.90;;;;;;5067493;28;20117;-71
2022/06/01 08:04:24;;;;;;;9.93;8.88;;;14.90;99.90;;;;;;5067608;28;20485;-71
2022/06/01 08:06:50;;;;;;;10.65;8.73;;;15.20;99.90;;;;;;5067314;28;20040;-71
2022/06/01 08:09:16;;;;;;;11.52;8.80;;;15.30;99.90;;;;;;5059688;28;20501;-70
2022/06/01 08:14:26;;;;;;;9.02;8.13;;;15.70;99.90;;;;;;5066977;28;20052;-70
2022/06/01 08:16:52;;;;;;;12.13;7.45;;;16.00;99.90;;;;;;5067638;28;20098;-71
2022/06/01 08:19:19;;;;;;;9.82;7.60;;;16.20;99.90;;;;;;5067936;28;20040;-71
2022/06/01 08:21:45;;;;;;;7.90;7.03;;;16.30;99.90;;;;;;5071220;28;20409;-71
2022/06/01 08:24:12;;;;;;;10.00;7.35;;;16.40;99.90;;;;;;5067840;28;20055;-70
2022/06/01 08:26:38;;;;;;;9.40;6.97;;;16.60;99.90;;;;;;5067480;28;20373;-72
2022/06/01 08:29:03;;;;;;;7.75;6.95;;;16.80;99.90;;;;;;5067168;28;20040;-71
2022/06/01 08:31:31;;;;;;;8.52;6.72;;;16.90;99.90;;;;;;5067924;28;20047;-71
2022/06/01 08:33:58;;;;;;;7.60;6.32;;;16.90;99.90;;;;;;5066602;28;20049;-71
2022/06/01 08:36:24;;;;;;;6.82;6.10;;;16.90;99.90;;;;;;5066570;28;20047;-71
2022/06/01 08:38:50;;;;;;;9.02;5.95;;;16.90;99.90;;;;;;5068013;28;20504;-70
2022/06/01 08:41:17;;;;;;;6.68;5.65;;;16.90;99.90;;;;;;5067218;28;20072;-70
2022/06/01 08:43:51;;;;;;;8.15;5.82;;;16.80;99.90;;;;;;5066897;28;20065;-70
2022/06/01 08:46:19;;;;;;;7.55;5.60;;;16.70;99.90;;;;;;5068132;28;20039;-70
2022/06/01 08:48:56;;;;;;;6.75;5.68;;;16.60;99.90;;;;;;5071248;28;20115;-70
2022/06/01 08:51:25;;;;;;;6.57;5.65;;;16.70;99.90;;;;;;5067420;28;20037;-71
2022/06/01 08:53:51;;;;;;;7.45;6.15;;;16.60;99.90;;;;;;5067395;28;20503;-71
2022/06/01 08:56:41;;;;;;;8.88;6.10;;;16.60;99.90;;;;;;5067433;28;20045;-71
2022/06/01 08:59:26;;;;;;;7.30;6.43;;;16.50;99.90;;;;;;5060308;28;20053;-71
2022/06/01 09:02:17;;;;;;;8.57;6.05;;;16.40;99.90;;;;;;5066832;28;20113;-71
2022/06/01 09:05:04;;;;;;;6.88;5.95;;;16.40;99.90;;;;;;5068108;28;20044;-71
2022/06/01 09:07:37;;;;;;;6.38;5.60;;;16.30;99.90;;;;;;5067959;28;20049;-70
2022/06/01 09:10:33;;;;;;;6.80;5.45;;;16.30;99.90;;;;;;5067947;28;20040;-71
2022/06/01 09:13:09;;;;;;;6.35;5.45;;;16.40;99.90;;;;;;5071005;28;20067;-71
2022/06/01 09:15:59;;;;;;;7.53;5.60;;;16.50;99.90;;;;;;5070720;28;20045;-71
2022/06/01 09:18:29;;;;;;;6.50;5.80;;;16.70;99.90;;;;;;5071596;28;20139;-70
2022/06/01 09:23:41;;;;;;;8.23;6.10;;;17.00;99.90;;;;;;5070963;28;20107;-70
2022/06/01 09:26:08;;;;;;;7.15;6.32;;;17.20;99.90;;;;;;5070970;28;20036;-71
2022/06/01 09:28:41;;;;;;;7.30;5.68;;;17.30;99.90;;;;;;5060684;28;20102;-71
2022/06/01 09:31:22;;;;;;;7.43;5.88;;;17.50;99.90;;;;;;5051119;28;20051;-71
2022/06/01 09:33:49;;;;;;;6.43;5.38;;;17.80;99.90;;;;;;5050787;28;20052;-71
2022/06/01 09:36:25;;;;;;;6.72;5.90;;;18.10;99.90;;;;;;5051176;28;20044;-70
2022/06/01 09:38:59;;;;;;;6.57;5.88;;;18.20;99.90;;;;;;5050501;28;20037;-70
2022/06/01 09:41:40;;;;;;;5.15;4.53;;;18.30;99.90;;;;;;5050207;28;20131;-71
2022/06/01 09:44:14;;;;;;;5.60;4.63;;;18.30;99.90;;;;;;5048762;28;20033;-71
2022/06/01 09:46:40;;;;;;;5.93;4.70;;;18.20;99.90;;;;;;5066221;28;20131;-71
2022/06/01 09:49:18;;;;;;;4.75;3.90;;;18.20;99.90;;;;;;5050784;28;20117;-71
2022/06/01 09:51:46;;;;;;;4.47;3.40;;;18.00;99.90;;;;;;5050215;28;20059;-71
2022/06/01 09:54:32;;;;;;;4.18;3.40;;;17.80;99.90;;;;;;5065255;28;20052;-71
2022/06/01 09:57:35;;;;;;;4.63;3.80;;;17.60;99.90;;;;;;5050960;28;20041;-71
2022/06/01 10:08:30;;;;;;;4.47;3.08;;;17.40;99.90;;;;;;5052537;28;20107;-72
2022/06/01 10:11:04;;;;;;;3.60;3.00;;;17.50;99.90;;;;;;5049271;28;20065;-71
2022/06/01 10:13:35;;;;;;;3.58;2.97;;;17.70;99.90;;;;;;5049086;28;20501;-71
2022/06/01 10:16:36;;;;;;;4.20;2.70;;;17.80;99.90;;;;;;5050898;28;20088;-71
2022/06/01 10:19:07;;;;;;;2.97;2.35;;;17.90;99.90;;;;;;5041685;28;20111;-71
2022/06/01 10:21:56;;;;;;;3.03;2.20;;;17.90;99.90;;;;;;5050873;28;20048;-71
2022/06/01 10:25:04;;;;;;;2.75;2.08;;;17.90;99.90;;;;;;5049091;28;20780;-71
2022/06/01 10:27:35;;;;;;;2.70;2.00;;;18.20;99.90;;;;;;5042306;28;20092;-71
2022/06/01 10:30:06;;;;;;;3.75;2.30;;;18.50;99.90;;;;;;5050068;28;20061;-73
2022/06/01 10:33:00;;;;;;;3.78;2.55;;;18.80;99.90;;;;;;5050096;28;20065;-72
2022/06/01 10:35:46;;;;;;;2.75;2.00;;;19.00;99.90;;;;;;5043499;28;20469;-70
2022/06/01 10:38:25;;;;;;;;;;;19.30;99.90;;;;;;5049803;28;20124;-71
2022/06/01 10:41:14;;;;;;;2.47;1.88;;;19.40;99.90;;;;;;5068368;28;19974;-70
2022/06/01 10:44:06;;;;;;;2.22;1.80;;;19.70;99.90;;;;;;5066491;28;20092;-70
2022/06/01 10:46:49;;;;;;;2.65;1.70;;;20.00;99.90;;;;;;5036898;28;20123;-67
2022/06/01 10:49:48;;;;;;;2.88;1.88;;;20.40;99.90;;;;;;5065601;28;20052;-68
2022/06/01 10:52:17;;;;;;;2.60;2.10;;;21.40;99.60;;;;;;5065159;28;20044;-68
2022/06/01 10:55:01;;;;;;;2.95;1.80;;;21.70;98.70;;;;;;5065472;28;20460;-68
2022/06/01 10:57:27;;;;;;;2.58;1.60;;;21.40;99.00;;;;;;5066440;28;20055;-67
2022/06/01 10:59:53;;;;;;;3.28;1.92;;;21.20;98.80;;;;;;5047829;28;20052;-68
2022/06/01 11:02:53;;;;;;;2.30;1.60;;;20.80;99.10;;;;;;5045473;28;20057;-67
2022/06/01 11:05:25;;;;;;;2.47;1.88;;;20.30;99.60;;;;;;5032370;28;20480;-68
2022/06/01 11:08:29;;;;;;;2.95;2.00;;;19.70;99.90;;;;;;5048317;28;20155;-68
2022/06/01 11:11:21;;;;;;;2.53;1.60;;;19.40;99.90;;;;;;5066466;28;20067;-68
2022/06/01 11:14:05;;;;;;;2.53;1.75;;;19.00;99.90;;;;;;5027471;28;20057;-69
2022/06/01 11:16:38;;;;;;;2.33;1.80;;;18.50;99.90;;;;;;5044477;28;20084;-67
2022/06/01 11:19:33;;;;;;;2.80;1.92;;;18.10;99.90;;;;;;5064035;28;20040;-68
2022/06/01 11:22:28;;;;;;;4.18;2.50;;;17.80;99.90;;;;;;5064757;28;20044;-68
2022/06/01 11:25:19;;;;;;;3.83;2.55;;;17.50;99.90;;;;;;5065684;28;20053;-68
2022/06/01 11:27:50;;;;;;;4.13;2.60;;;17.30;99.90;;;;;;5064086;28;20113;-68
2022/06/01 11:30:22;;;;;;;3.90;2.50;;;17.00;99.90;;;;;;5064150;28;20040;-68
2022/06/01 11:33:03;;;;;;;3.30;2.45;;;16.90;99.90;;;;;;5045858;28;20048;-68
2022/06/01 11:35:39;;;;;;;3.58;2.60;;;16.90;99.90;;;;;;5064864;28;20048;-68
2022/06/01 11:38:17;;;;;;;2.90;2.30;;;17.00;99.90;;;;;;5064554;28;20040;-68
2022/06/01 11:40:55;;;;;;;5.28;2.90;;;17.10;99.90;;;;;;5065973;28;20047;-68
2022/06/01 11:43:37;;;;;;;3.95;2.80;;;17.30;99.90;;;;;;5064048;28;20105;-73
2022/06/01 11:46:13;;;;;;;3.45;2.58;;;17.70;99.90;;;;;;5068704;28;20051;-73
2022/06/01 11:48:46;;;;;;;3.22;1.98;;;18.10;99.90;;;;;;5068103;28;20052;-73
2022/06/01 11:51:21;;;;;;;3.28;2.03;;;18.40;99.90;;;;;;5066141;28;20047;-73
2022/06/01 11:54:08;;;;;;;3.08;1.80;;;18.40;99.90;;;;;;5081788;28;20180;-73
2022/06/01 11:56:51;;;;;;;2.72;1.70;;;18.50;99.90;;;;;;5071153;28;20058;-72
2022/06/01 11:59:31;;;;;;;2.00;1.80;;;18.50;99.90;;;;;;5070760;28;20049;-72
2022/06/01 12:01:58;;;;;;;2.10;1.60;;;18.60;99.90;;;;;;5064404;28;20447;-72
2022/06/01 12:04:38;;;;;;;3.13;1.80;;;18.70;99.90;;;;;;5065148;28;20109;-72
2022/06/01 12:07:28;;;;;;;2.47;1.85;;;19.00;99.90;;;;;;5064407;28;20044;-72
2022/06/01 12:10:07;;;;;;;2.45;1.77;;;19.40;99.90;;;;;;5064307;28;20036;-71
2022/06/01 12:12:33;;;;;;;2.08;1.80;;;19.70;99.90;;;;;;5065697;28;20343;-70
2022/06/01 12:15:54;;;;;;;6.82;2.55;;;19.80;99.90;;;;;;5065556;28;20044;-71
2022/06/01 12:18:24;;;;;;;3.28;2.33;;;19.90;99.90;;;;;;5004106;28;20057;-71
2022/06/01 12:21:14;;;;;;;4.30;2.70;;;20.30;99.90;;;;;;5056571;28;20056;-72
2022/06/01 12:29:59;;;;;;;2.03;1.70;;;23.10;96.10;;;;;;5064189;28;20374;-70
2022/06/01 12:32:26;;;;;;;4.85;2.00;;;22.30;96.70;;;;;;5063525;28;20050;-70
2022/06/01 12:35:12;;;;;;;2.78;2.00;;;21.80;97.90;;;;;;5064387;28;20060;-71
2022/06/01 12:37:58;;;;;;;3.33;2.33;;;21.40;98.50;;;;;;5067487;28;20044;-71
2022/06/01 12:40:25;;;;;;;4.45;2.70;;;21.00;98.70;;;;;;5054572;28;20051;-71
2022/06/01 12:42:58;;;;;;;4.85;2.80;;;20.40;99.10;;;;;;5065066;28;20049;-71
2022/06/01 12:45:43;;;;;;;4.30;2.80;;;19.90;99.90;;;;;;5065271;28;20063;-72
2022/06/01 12:48:12;;;;;;;;;;;19.50;99.90;;;;;;5047019;28;20505;-72
2022/06/01 12:50:58;;;;;;;4.40;3.55;;;19.20;99.90;;;;;;5044962;28;20370;-72
2022/06/01 12:53:39;;;;;;;5.13;3.15;;;18.70;99.90;;;;;;5045721;28;20040;-74
2022/06/01 12:56:21;;;;;;;5.60;3.10;;;18.40;99.90;;;;;;5062562;28;20047;-72
2022/06/01 12:58:50;;;;;;;4.97;2.40;;;18.20;99.90;;;;;;5066351;28;20497;-72
2022/06/01 13:01:20;;;;;;;3.00;2.08;;;17.80;99.90;;;;;;5066153;28;20137;-70
2022/06/01 13:03:51;;;;;;;3.40;2.22;;;18.20;99.90;;;;;;5064597;28;20233;-71
2022/06/01 13:06:21;;;;;;;2.80;1.70;;;17.40;99.90;;;;;;5068306;28;20139;-71
2022/06/01 13:09:00;;;;;;;2.45;1.70;;;17.10;99.90;;;;;;5067057;28;20044;-71
2022/06/01 13:11:32;;;;;;;2.88;2.10;;;17.40;99.90;;;;;;5052318;28;20040;-71
2022/06/01 13:14:03;;;;;;;3.95;2.08;;;16.80;99.90;;;;;;5086996;28;20048;-72
2022/06/01 13:16:37;;;;;;;3.58;2.10;;;16.60;99.90;;;;;;5067999;28;20040;-72
2022/06/01 13:19:21;;;;;;;3.03;2.20;;;16.50;99.90;;;;;;5066297;28;20155;-69
2022/06/01 13:21:59;;;;;;;3.55;2.38;;;16.50;99.90;;;;;;5067691;28;20098;-69
2022/06/01 13:24:28;;;;;;;3.65;2.17;;;16.30;99.90;;;;;;5069422;28;20056;-69
2022/06/01 13:27:08;;;;;;;3.65;2.38;;;16.20;99.90;;;;;;5066678;28;20041;-70
2022/06/01 13:29:49;;;;;;;2.90;2.30;;;16.20;99.90;;;;;;5066371;28;20051;-71
2022/06/01 13:32:19;;;;;;;3.13;2.08;;;16.10;99.90;;;;;;5065878;28;20127;-71
2022/06/01 13:34:51;;;;;;;2.83;2.10;;;16.00;99.90;;;;;;5067843;28;20041;-72